createdAt,value
2017-12-14T00:00:57.794Z,981.05
2017-12-14T00:01:57.771Z,981.16
2017-12-14T00:02:57.754Z,981.16
2017-12-14T00:03:57.730Z,981.22
2017-12-14T00:04:57.714Z,981.10
2017-12-14T00:05:57.689Z,981.13
2017-12-14T00:06:57.670Z,981.10
2017-12-14T00:07:57.639Z,981.13
2017-12-14T00:08:57.618Z,981.14
2017-12-14T00:09:57.610Z,981.14
2017-12-14T00:10:57.578Z,981.20
2017-12-14T00:11:57.554Z,981.13
2017-12-14T00:12:57.531Z,981.11
2017-12-14T00:13:57.511Z,981.09
2017-12-14T00:14:57.489Z,981.01
2017-12-14T00:15:57.470Z,981.04
2017-12-14T00:16:57.448Z,981.11
2017-12-14T00:17:57.423Z,981.02
2017-12-14T00:18:57.403Z,981.06
2017-12-14T00:19:57.380Z,981.07
2017-12-14T00:20:57.356Z,980.96
2017-12-14T00:21:57.336Z,980.99
2017-12-14T00:22:57.320Z,980.96
2017-12-14T00:23:57.292Z,980.98
2017-12-14T00:24:57.269Z,980.99
2017-12-14T00:25:57.249Z,980.97
2017-12-14T00:26:57.229Z,980.91
2017-12-14T00:27:57.207Z,980.96
2017-12-14T00:28:57.183Z,981.02
2017-12-14T00:29:57.171Z,981.06
2017-12-14T00:30:57.141Z,981.15
2017-12-14T00:31:57.117Z,981.15
2017-12-14T00:32:57.099Z,981.18
2017-12-14T00:33:57.075Z,981.21
2017-12-14T00:34:57.050Z,981.28
2017-12-14T00:35:57.032Z,981.34
2017-12-14T00:36:57.018Z,981.37
2017-12-14T00:37:56.992Z,981.41
2017-12-14T00:38:56.964Z,981.43
2017-12-14T00:39:56.945Z,981.54
2017-12-14T00:40:56.929Z,981.50
2017-12-14T00:41:56.903Z,981.64
2017-12-14T00:42:56.883Z,981.64
2017-12-14T00:43:56.856Z,981.69
2017-12-14T00:44:56.833Z,981.70
2017-12-14T00:45:56.820Z,981.72
2017-12-14T00:46:56.795Z,981.76
2017-12-14T00:47:56.774Z,981.66
2017-12-14T00:48:56.748Z,981.66
2017-12-14T00:49:56.733Z,981.67
2017-12-14T00:50:56.706Z,981.68
2017-12-14T00:51:56.690Z,981.70
2017-12-14T00:52:56.666Z,981.66
2017-12-14T00:53:56.638Z,981.69
2017-12-14T00:54:56.620Z,981.63
2017-12-14T00:55:56.595Z,981.70
2017-12-14T00:56:56.580Z,981.73
2017-12-14T00:57:56.559Z,981.68
2017-12-14T00:58:56.531Z,981.65
2017-12-14T00:59:56.508Z,981.64
2017-12-14T01:00:56.488Z,981.63
2017-12-14T01:01:56.466Z,981.70
2017-12-14T01:02:56.441Z,981.62
2017-12-14T01:03:56.421Z,981.59
2017-12-14T01:04:56.399Z,981.65
2017-12-14T01:05:56.378Z,981.63
2017-12-14T01:06:56.357Z,981.62
2017-12-14T01:07:56.332Z,981.63
2017-12-14T01:08:56.315Z,981.58
2017-12-14T01:09:56.298Z,981.57
2017-12-14T01:10:56.271Z,981.58
2017-12-14T01:11:56.246Z,981.53
2017-12-14T01:12:56.228Z,981.52
2017-12-14T01:13:56.205Z,981.52
2017-12-14T01:14:56.184Z,981.50
2017-12-14T01:15:56.170Z,981.44
2017-12-14T01:16:56.139Z,981.40
2017-12-14T01:17:56.122Z,981.47
2017-12-14T01:18:56.094Z,981.42
2017-12-14T01:19:56.071Z,981.44
2017-12-14T01:20:56.052Z,981.38
2017-12-14T01:21:56.029Z,981.46
2017-12-14T01:22:56.008Z,981.41
2017-12-14T01:23:55.985Z,981.40
2017-12-14T01:24:55.967Z,981.41
2017-12-14T01:25:55.944Z,981.54
2017-12-14T01:26:55.922Z,981.59
2017-12-14T01:27:55.899Z,981.67
2017-12-14T01:28:55.882Z,981.65
2017-12-14T01:29:55.857Z,981.66
2017-12-14T01:30:55.835Z,981.67
2017-12-14T01:31:55.820Z,981.79
2017-12-14T01:32:55.794Z,981.88
2017-12-14T01:33:55.769Z,981.97
2017-12-14T01:34:55.749Z,981.99
2017-12-14T01:35:55.730Z,981.99
2017-12-14T01:36:55.706Z,982.03
2017-12-14T01:37:55.685Z,982.05
2017-12-14T01:38:55.660Z,982.09
2017-12-14T01:39:55.641Z,982.13
2017-12-14T01:40:55.619Z,982.09
2017-12-14T01:41:55.599Z,982.12
2017-12-14T01:42:55.572Z,982.20
2017-12-14T01:43:55.564Z,982.19
2017-12-14T01:44:55.531Z,982.24
2017-12-14T01:45:55.513Z,982.28
2017-12-14T01:46:55.485Z,982.22
2017-12-14T01:47:55.468Z,982.25
2017-12-14T01:48:55.445Z,982.33
2017-12-14T01:49:55.419Z,982.29
2017-12-14T01:50:55.399Z,982.34
2017-12-14T01:51:55.379Z,982.30
2017-12-14T01:52:55.358Z,982.27
2017-12-14T01:53:55.334Z,982.26
2017-12-14T01:54:55.310Z,982.25
2017-12-14T01:55:55.289Z,982.27
2017-12-14T01:56:55.269Z,982.32
2017-12-14T01:57:55.246Z,982.27
2017-12-14T01:58:55.221Z,982.21
2017-12-14T01:59:55.206Z,982.13
2017-12-14T02:00:55.186Z,982.12
2017-12-14T02:01:55.158Z,982.07
2017-12-14T02:02:55.138Z,982.02
2017-12-14T02:03:55.116Z,982.05
2017-12-14T02:04:55.096Z,982.00
2017-12-14T02:05:55.073Z,981.94
2017-12-14T02:06:55.049Z,981.85
2017-12-14T02:07:55.032Z,981.86
2017-12-14T02:08:55.006Z,981.79
2017-12-14T02:09:54.984Z,981.78
2017-12-14T02:10:54.960Z,981.76
2017-12-14T02:11:54.944Z,981.72
2017-12-14T02:12:54.919Z,981.76
2017-12-14T02:13:54.898Z,981.71
2017-12-14T02:14:54.873Z,981.73
2017-12-14T02:15:54.857Z,981.67
2017-12-14T02:16:54.834Z,981.77
2017-12-14T02:17:54.808Z,981.75
2017-12-14T02:18:54.791Z,981.69
2017-12-14T02:19:54.767Z,981.66
2017-12-14T02:20:54.748Z,981.71
2017-12-14T02:21:54.724Z,981.71
2017-12-14T02:22:54.698Z,981.64
2017-12-14T02:23:54.677Z,981.65
2017-12-14T02:24:54.658Z,981.67
2017-12-14T02:25:54.638Z,981.72
2017-12-14T02:26:54.613Z,981.73
2017-12-14T02:27:54.597Z,981.77
2017-12-14T02:28:54.571Z,981.76
2017-12-14T02:29:54.548Z,981.75
2017-12-14T02:30:54.527Z,981.75
2017-12-14T02:31:54.511Z,981.77
2017-12-14T02:32:54.487Z,981.80
2017-12-14T02:33:54.464Z,981.83
2017-12-14T02:34:54.442Z,981.83
2017-12-14T02:35:54.417Z,981.80
2017-12-14T02:36:54.405Z,981.83
2017-12-14T02:37:54.374Z,981.81
2017-12-14T02:38:54.358Z,981.82
2017-12-14T02:39:54.329Z,981.84
2017-12-14T02:40:54.309Z,981.80
2017-12-14T02:41:54.286Z,981.83
2017-12-14T02:42:54.262Z,981.80
2017-12-14T02:43:54.248Z,981.82
2017-12-14T02:44:54.219Z,981.77
2017-12-14T02:45:54.198Z,981.84
2017-12-14T02:46:54.176Z,981.82
2017-12-14T02:47:54.158Z,981.82
2017-12-14T02:48:54.136Z,981.80
2017-12-14T02:49:54.112Z,981.80
2017-12-14T02:50:54.088Z,981.82
2017-12-14T02:51:54.070Z,981.83
2017-12-14T02:52:54.043Z,981.76
2017-12-14T02:53:54.028Z,981.75
2017-12-14T02:54:54.001Z,981.77
2017-12-14T02:55:53.982Z,981.79
2017-12-14T02:56:53.962Z,981.79
2017-12-14T02:57:53.938Z,981.76
2017-12-14T02:58:53.917Z,981.75
2017-12-14T02:59:53.895Z,981.77
2017-12-14T03:00:53.872Z,981.69
2017-12-14T03:01:53.849Z,981.67
2017-12-14T03:02:53.826Z,981.72
2017-12-14T03:03:53.809Z,981.69
2017-12-14T03:04:53.790Z,981.70
2017-12-14T03:05:53.762Z,981.63
2017-12-14T03:06:53.748Z,981.62
2017-12-14T03:07:53.717Z,981.59
2017-12-14T03:08:53.695Z,981.62
2017-12-14T03:09:53.675Z,981.59
2017-12-14T03:10:53.652Z,981.63
2017-12-14T03:11:53.628Z,981.64
2017-12-14T03:12:53.609Z,981.62
2017-12-14T03:13:53.586Z,981.61
2017-12-14T03:14:53.565Z,981.59
2017-12-14T03:15:53.541Z,981.64
2017-12-14T03:16:53.520Z,981.65
2017-12-14T03:17:53.499Z,981.59
2017-12-14T03:18:53.478Z,981.61
2017-12-14T03:19:53.454Z,981.58
2017-12-14T03:20:53.431Z,981.57
2017-12-14T03:21:53.411Z,981.57
2017-12-14T03:22:53.388Z,981.54
2017-12-14T03:23:53.370Z,981.55
2017-12-14T03:24:53.342Z,981.55
2017-12-14T03:25:53.325Z,981.57
2017-12-14T03:26:53.297Z,981.54
2017-12-14T03:27:53.279Z,981.58
2017-12-14T03:28:53.256Z,981.59
2017-12-14T03:29:53.235Z,981.57
2017-12-14T03:30:53.209Z,981.59
2017-12-14T03:31:53.192Z,981.53
2017-12-14T03:32:53.171Z,981.57
2017-12-14T03:33:53.148Z,981.59
2017-12-14T03:34:53.132Z,981.58
2017-12-14T03:35:53.104Z,981.57
2017-12-14T03:36:53.082Z,981.58
2017-12-14T03:37:53.056Z,981.63
2017-12-14T03:38:53.034Z,981.58
2017-12-14T03:39:53.015Z,981.56
2017-12-14T03:40:52.994Z,981.59
2017-12-14T03:41:52.975Z,981.60
2017-12-14T03:42:52.947Z,981.60
2017-12-14T03:43:52.930Z,981.60
2017-12-14T03:44:52.906Z,981.59
2017-12-14T03:45:52.887Z,981.58
2017-12-14T03:46:52.862Z,981.59
2017-12-14T03:47:52.838Z,981.63
2017-12-14T03:48:52.821Z,981.65
2017-12-14T03:49:52.794Z,981.62
2017-12-14T03:50:52.771Z,981.66
2017-12-14T03:51:52.748Z,981.65
2017-12-14T03:52:52.732Z,981.64
2017-12-14T03:53:52.708Z,981.67
2017-12-14T03:54:52.689Z,981.60
2017-12-14T03:55:52.681Z,981.65
2017-12-14T03:56:52.638Z,981.67
2017-12-14T03:57:52.616Z,981.70
2017-12-14T03:58:52.596Z,981.67
2017-12-14T03:59:52.585Z,981.71
2017-12-14T04:00:52.549Z,981.68
2017-12-14T04:01:52.532Z,981.66
2017-12-14T04:02:52.510Z,981.69
2017-12-14T04:03:52.491Z,981.68
2017-12-14T04:04:52.472Z,981.66
2017-12-14T04:05:52.442Z,981.66
2017-12-14T04:06:52.423Z,981.61
2017-12-14T04:07:52.407Z,981.62
2017-12-14T04:08:52.378Z,981.64
2017-12-14T04:09:52.361Z,981.63
2017-12-14T04:10:52.333Z,981.65
2017-12-14T04:11:52.312Z,981.61
2017-12-14T04:12:52.297Z,981.61
2017-12-14T04:13:52.284Z,981.59
2017-12-14T04:14:52.253Z,981.61
2017-12-14T04:15:52.227Z,981.60
2017-12-14T04:16:52.201Z,981.62
2017-12-14T04:17:52.180Z,981.62
2017-12-14T04:18:52.160Z,981.69
2017-12-14T04:19:52.140Z,981.68
2017-12-14T04:20:52.131Z,981.67
2017-12-14T04:21:52.096Z,981.70
2017-12-14T04:22:52.077Z,981.69
2017-12-14T04:23:52.054Z,981.69
2017-12-14T04:24:52.027Z,981.66
2017-12-14T04:25:52.007Z,981.66
2017-12-14T04:26:51.985Z,981.70
2017-12-14T04:27:51.962Z,981.69
2017-12-14T04:28:51.990Z,981.69
2017-12-14T04:29:51.918Z,981.67
2017-12-14T04:30:51.900Z,981.66
2017-12-14T04:31:51.875Z,981.64
2017-12-14T04:32:51.852Z,981.67
2017-12-14T04:33:51.828Z,981.67
2017-12-14T04:34:51.806Z,981.75
2017-12-14T04:35:51.789Z,981.74
2017-12-14T04:36:51.763Z,981.77
2017-12-14T04:37:51.749Z,981.78
2017-12-14T04:38:51.724Z,981.84
2017-12-14T04:39:51.699Z,981.84
2017-12-14T04:40:51.678Z,981.84
2017-12-14T04:41:51.654Z,981.85
2017-12-14T04:42:51.640Z,981.90
2017-12-14T04:43:51.614Z,981.88
2017-12-14T04:44:51.591Z,981.93
2017-12-14T04:45:51.566Z,981.95
2017-12-14T04:46:51.543Z,981.97
2017-12-14T04:47:51.530Z,981.99
2017-12-14T04:48:51.502Z,981.99
2017-12-14T04:49:51.478Z,981.99
2017-12-14T04:50:51.459Z,981.99
2017-12-14T04:51:51.440Z,981.98
2017-12-14T04:52:51.415Z,982.00
2017-12-14T04:53:51.393Z,982.02
2017-12-14T04:54:51.367Z,982.05
2017-12-14T04:55:51.353Z,982.05
2017-12-14T04:56:51.333Z,982.01
2017-12-14T04:57:51.305Z,982.10
2017-12-14T04:58:51.277Z,982.06
2017-12-14T04:59:51.256Z,982.05
2017-12-14T05:00:51.233Z,982.06
2017-12-14T05:01:51.219Z,982.04
2017-12-14T05:02:51.188Z,982.09
2017-12-14T05:03:51.170Z,982.06
2017-12-14T05:04:51.147Z,982.06
2017-12-14T05:05:51.123Z,982.04
2017-12-14T05:06:51.103Z,982.05
2017-12-14T05:07:51.085Z,982.00
2017-12-14T05:08:51.056Z,981.98
2017-12-14T05:09:51.036Z,981.99
2017-12-14T05:10:51.013Z,981.95
2017-12-14T05:11:50.997Z,981.94
2017-12-14T05:12:50.969Z,981.95
2017-12-14T05:13:50.950Z,982.02
2017-12-14T05:14:50.928Z,982.06
2017-12-14T05:15:50.902Z,982.05
2017-12-14T05:16:50.883Z,982.00
2017-12-14T05:17:50.852Z,981.99
2017-12-14T05:18:50.842Z,981.97
2017-12-14T05:19:50.806Z,982.01
2017-12-14T05:20:50.787Z,981.98
2017-12-14T05:21:50.762Z,981.99
2017-12-14T05:22:50.737Z,981.96
2017-12-14T05:23:50.716Z,981.98
2017-12-14T05:24:50.696Z,981.98
2017-12-14T05:25:50.670Z,982.11
2017-12-14T05:26:50.648Z,982.12
2017-12-14T05:27:50.627Z,982.20
2017-12-14T05:28:50.608Z,982.22
2017-12-14T05:29:50.581Z,982.22
2017-12-14T05:30:50.558Z,982.23
2017-12-14T05:31:50.543Z,982.23
2017-12-14T05:32:50.518Z,982.24
2017-12-14T05:33:50.493Z,982.28
2017-12-14T05:34:50.469Z,982.24
2017-12-14T05:35:50.450Z,982.24
2017-12-14T05:36:50.419Z,982.26
2017-12-14T05:37:50.403Z,982.28
2017-12-14T05:38:50.377Z,982.25
2017-12-14T05:39:50.362Z,982.25
2017-12-14T05:40:50.330Z,982.29
2017-12-14T05:41:50.305Z,982.32
2017-12-14T05:42:50.284Z,982.30
2017-12-14T05:43:50.259Z,982.30
2017-12-14T05:44:50.241Z,982.35
2017-12-14T05:45:50.218Z,982.36
2017-12-14T05:46:50.194Z,982.30
2017-12-14T05:47:50.168Z,982.35
2017-12-14T05:48:50.147Z,982.35
2017-12-14T05:49:50.122Z,982.38
2017-12-14T05:50:50.102Z,982.38
2017-12-14T05:51:50.075Z,982.38
2017-12-14T05:52:50.059Z,982.41
2017-12-14T05:53:50.039Z,982.43
2017-12-14T05:54:50.004Z,982.52
2017-12-14T05:55:49.988Z,982.46
2017-12-14T05:56:49.970Z,982.48
2017-12-14T05:57:49.941Z,982.54
2017-12-14T05:58:49.916Z,982.52
2017-12-14T05:59:49.895Z,982.56
2017-12-14T06:00:49.870Z,982.57
2017-12-14T06:01:49.854Z,982.60
2017-12-14T06:02:49.823Z,982.64
2017-12-14T06:03:49.811Z,982.67
2017-12-14T06:04:49.774Z,982.69
2017-12-14T06:05:49.759Z,982.67
2017-12-14T06:06:49.730Z,982.71
2017-12-14T06:07:49.714Z,982.80
2017-12-14T06:08:49.686Z,982.80
2017-12-14T06:09:49.672Z,982.83
2017-12-14T06:10:49.640Z,982.83
2017-12-14T06:11:49.615Z,982.88
2017-12-14T06:12:49.590Z,982.87
2017-12-14T06:13:49.568Z,982.89
2017-12-14T06:14:49.545Z,982.88
2017-12-14T06:15:49.523Z,982.90
2017-12-14T06:16:49.499Z,982.89
2017-12-14T06:17:49.477Z,982.95
2017-12-14T06:18:49.449Z,982.98
2017-12-14T06:19:49.427Z,982.96
2017-12-14T06:20:49.409Z,982.98
2017-12-14T06:21:49.381Z,982.99
2017-12-14T06:22:49.358Z,983.06
2017-12-14T06:23:49.338Z,983.03
2017-12-14T06:24:49.313Z,983.13
2017-12-14T06:25:49.290Z,983.14
2017-12-14T06:26:49.265Z,983.17
2017-12-14T06:27:49.246Z,983.20
2017-12-14T06:28:49.223Z,983.19
2017-12-14T06:29:49.200Z,983.22
2017-12-14T06:30:49.183Z,983.28
2017-12-14T06:31:49.148Z,983.30
2017-12-14T06:32:49.134Z,983.37
2017-12-14T06:33:49.103Z,983.34
2017-12-14T06:34:49.087Z,983.40
2017-12-14T06:35:49.057Z,983.40
2017-12-14T06:36:49.036Z,983.40
2017-12-14T06:37:49.012Z,983.44
2017-12-14T06:38:48.992Z,983.47
2017-12-14T06:39:48.968Z,983.45
2017-12-14T06:40:48.945Z,983.51
2017-12-14T06:41:48.920Z,983.56
2017-12-14T06:42:48.902Z,983.56
2017-12-14T06:43:48.878Z,983.57
2017-12-14T06:44:48.853Z,983.58
2017-12-14T06:45:48.829Z,983.62
2017-12-14T06:46:48.806Z,983.69
2017-12-14T06:47:48.778Z,983.72
2017-12-14T06:48:48.758Z,983.70
2017-12-14T06:49:48.735Z,983.78
2017-12-14T06:50:48.712Z,983.78
2017-12-14T06:51:48.687Z,983.81
2017-12-14T06:52:48.669Z,983.77
2017-12-14T06:53:48.647Z,983.87
2017-12-14T06:54:48.621Z,983.90
2017-12-14T06:55:48.598Z,983.92
2017-12-14T06:56:48.579Z,983.95
2017-12-14T06:57:48.553Z,983.99
2017-12-14T06:58:48.530Z,984.05
2017-12-14T06:59:48.505Z,984.11
2017-12-14T07:00:48.481Z,984.06
2017-12-14T07:01:48.456Z,984.08
2017-12-14T07:02:48.434Z,984.21
2017-12-14T07:03:48.413Z,984.22
2017-12-14T07:04:48.393Z,984.21
2017-12-14T07:05:48.369Z,984.24
2017-12-14T07:06:48.348Z,984.22
2017-12-14T07:07:48.318Z,984.34
2017-12-14T07:08:48.301Z,984.37
2017-12-14T07:09:48.274Z,984.40
2017-12-14T07:10:48.248Z,984.37
2017-12-14T07:11:48.226Z,984.34
2017-12-14T07:12:48.202Z,984.42
2017-12-14T07:13:48.179Z,984.42
2017-12-14T07:14:48.155Z,984.50
2017-12-14T07:15:48.138Z,984.49
2017-12-14T07:16:48.110Z,984.52
2017-12-14T07:17:48.089Z,984.54
2017-12-14T07:18:48.070Z,984.58
2017-12-14T07:19:48.039Z,984.59
2017-12-14T07:20:48.018Z,984.71
2017-12-14T07:21:47.994Z,984.72
2017-12-14T07:22:47.968Z,984.77
2017-12-14T07:23:47.946Z,984.83
2017-12-14T07:24:47.923Z,984.85
2017-12-14T07:25:47.901Z,984.81
2017-12-14T07:26:47.876Z,984.88
2017-12-14T07:27:47.853Z,984.84
2017-12-14T07:28:47.830Z,984.91
2017-12-14T07:29:47.808Z,984.84
2017-12-14T07:30:47.789Z,984.86
2017-12-14T07:31:47.768Z,984.88
2017-12-14T07:32:47.741Z,984.85
2017-12-14T07:33:47.718Z,984.83
2017-12-14T07:34:47.690Z,984.89
2017-12-14T07:35:47.669Z,984.98
2017-12-14T07:36:47.651Z,984.99
2017-12-14T07:37:47.629Z,985.03
2017-12-14T07:38:47.600Z,985.02
2017-12-14T07:39:47.579Z,985.07
2017-12-14T07:40:47.552Z,985.08
2017-12-14T07:41:47.528Z,985.00
2017-12-14T07:42:47.512Z,985.08
2017-12-14T07:43:47.541Z,985.13
2017-12-14T07:44:47.462Z,985.12
2017-12-14T07:45:47.439Z,985.16
2017-12-14T07:46:47.417Z,985.14
2017-12-14T07:47:47.391Z,985.11
2017-12-14T07:48:47.369Z,985.11
2017-12-14T07:49:47.344Z,985.10
2017-12-14T07:50:47.325Z,985.16
2017-12-14T07:51:47.300Z,985.11
2017-12-14T07:52:47.282Z,985.15
2017-12-14T07:53:47.254Z,985.08
2017-12-14T07:54:47.231Z,985.13
2017-12-14T07:55:47.209Z,985.12
2017-12-14T07:56:47.181Z,985.19
2017-12-14T07:57:47.160Z,985.15
2017-12-14T07:58:47.138Z,985.17
2017-12-14T07:59:47.112Z,985.23
2017-12-14T08:00:47.091Z,985.18
2017-12-14T08:01:47.068Z,985.21
2017-12-14T08:02:47.049Z,985.14
2017-12-14T08:03:47.025Z,985.18
2017-12-14T08:04:46.999Z,985.22
2017-12-14T08:05:46.979Z,985.28
2017-12-14T08:06:46.954Z,985.35
2017-12-14T08:07:46.936Z,985.32
2017-12-14T08:08:46.909Z,985.34
2017-12-14T08:09:46.885Z,985.36
2017-12-14T08:10:46.861Z,985.35
2017-12-14T08:11:46.837Z,985.33
2017-12-14T08:12:46.819Z,985.37
2017-12-14T08:13:46.794Z,985.38
2017-12-14T08:14:46.778Z,985.43
2017-12-14T08:15:46.749Z,985.49
2017-12-14T08:16:46.726Z,985.43
2017-12-14T08:17:46.706Z,985.47
2017-12-14T08:18:46.677Z,985.41
2017-12-14T08:19:46.661Z,985.41
2017-12-14T08:20:46.638Z,985.46
2017-12-14T08:21:46.608Z,985.47
2017-12-14T08:22:46.590Z,985.47
2017-12-14T08:23:46.568Z,985.49
2017-12-14T08:24:46.544Z,985.47
2017-12-14T08:25:46.523Z,985.45
2017-12-14T08:26:46.497Z,985.44
2017-12-14T08:27:46.472Z,985.42
2017-12-14T08:28:46.457Z,985.41
2017-12-14T08:29:46.430Z,985.38
2017-12-14T08:30:46.408Z,985.56
2017-12-14T08:31:46.385Z,985.46
2017-12-14T08:32:46.362Z,985.59
2017-12-14T08:33:46.338Z,985.51
2017-12-14T08:34:46.330Z,985.45
2017-12-14T08:35:46.298Z,985.53
2017-12-14T08:36:46.270Z,985.54
2017-12-14T08:37:46.248Z,985.64
2017-12-14T08:38:46.225Z,985.59
2017-12-14T08:39:46.206Z,985.63
2017-12-14T08:40:46.188Z,985.64
2017-12-14T08:41:46.158Z,985.65
2017-12-14T08:42:46.132Z,985.60
2017-12-14T08:43:46.116Z,985.63
2017-12-14T08:44:46.092Z,985.62
2017-12-14T08:45:46.068Z,985.55
2017-12-14T08:46:46.040Z,985.55
2017-12-14T08:47:46.021Z,985.58
2017-12-14T08:48:45.998Z,985.58
2017-12-14T08:49:45.976Z,985.61
2017-12-14T08:50:45.953Z,985.65
2017-12-14T08:51:45.931Z,985.64
2017-12-14T08:52:45.908Z,985.66
2017-12-14T08:53:45.889Z,985.67
2017-12-14T08:54:45.862Z,985.74
2017-12-14T08:55:45.838Z,985.76
2017-12-14T08:56:45.815Z,985.67
2017-12-14T08:57:45.794Z,985.71
2017-12-14T08:58:45.771Z,985.70
2017-12-14T08:59:45.753Z,985.79
2017-12-14T09:00:45.726Z,985.80
2017-12-14T09:01:45.701Z,985.84
2017-12-14T09:02:45.680Z,985.87
2017-12-14T09:03:45.655Z,985.84
2017-12-14T09:04:45.630Z,985.79
2017-12-14T09:05:45.614Z,985.83
2017-12-14T09:06:45.595Z,985.85
2017-12-14T09:07:45.568Z,985.90
2017-12-14T09:08:45.543Z,985.86
2017-12-14T09:09:45.528Z,985.93
2017-12-14T09:10:45.498Z,985.88
2017-12-14T09:11:45.474Z,985.88
2017-12-14T09:12:45.463Z,985.96
2017-12-14T09:13:45.431Z,985.88
2017-12-14T09:14:45.407Z,986.01
2017-12-14T09:15:45.386Z,985.95
2017-12-14T09:16:45.364Z,985.97
2017-12-14T09:17:45.341Z,986.02
2017-12-14T09:18:45.318Z,985.97
2017-12-14T09:19:45.290Z,985.92
2017-12-14T09:20:45.277Z,985.92
2017-12-14T09:21:45.248Z,985.96
2017-12-14T09:22:45.226Z,985.94
2017-12-14T09:23:45.209Z,985.96
2017-12-14T09:24:45.187Z,985.97
2017-12-14T09:25:45.167Z,985.98
2017-12-14T09:26:45.137Z,985.91
2017-12-14T09:27:45.111Z,985.89
2017-12-14T09:28:45.094Z,985.88
2017-12-14T09:29:45.069Z,985.98
2017-12-14T09:30:45.047Z,985.96
2017-12-14T09:31:45.025Z,985.95
2017-12-14T09:32:45.005Z,985.99
2017-12-14T09:33:44.977Z,985.98
2017-12-14T09:34:44.959Z,985.95
2017-12-14T09:35:44.932Z,985.93
2017-12-14T09:36:44.913Z,985.95
2017-12-14T09:37:44.898Z,985.95
2017-12-14T09:38:44.871Z,985.94
2017-12-14T09:39:44.851Z,986.01
2017-12-14T09:40:44.817Z,985.99
2017-12-14T09:41:44.798Z,985.99
2017-12-14T09:42:44.777Z,986.01
2017-12-14T09:43:44.750Z,985.98
2017-12-14T09:44:44.730Z,985.95
2017-12-14T09:45:44.711Z,985.93
2017-12-14T09:46:44.689Z,985.95
2017-12-14T09:47:44.666Z,985.90
2017-12-14T09:48:44.641Z,985.93
2017-12-14T09:49:44.622Z,985.89
2017-12-14T09:50:44.598Z,985.94
2017-12-14T09:51:44.571Z,985.89
2017-12-14T09:52:44.552Z,985.88
2017-12-14T09:53:44.526Z,985.92
2017-12-14T09:54:44.504Z,985.97
2017-12-14T09:55:44.483Z,985.87
2017-12-14T09:56:44.461Z,985.97
2017-12-14T09:57:44.432Z,985.94
2017-12-14T09:58:44.410Z,985.95
2017-12-14T09:59:44.393Z,985.94
2017-12-14T10:00:44.368Z,985.92
2017-12-14T10:01:44.349Z,986.04
2017-12-14T10:02:44.321Z,986.00
2017-12-14T10:03:44.297Z,985.92
2017-12-14T10:04:44.281Z,985.93
2017-12-14T10:05:44.258Z,985.89
2017-12-14T10:06:44.232Z,985.90
2017-12-14T10:07:44.207Z,985.93
2017-12-14T10:08:44.187Z,985.85
2017-12-14T10:09:44.165Z,986.00
2017-12-14T10:10:44.138Z,985.93
2017-12-14T10:11:44.118Z,985.92
2017-12-14T10:12:44.100Z,985.91
2017-12-14T10:13:44.077Z,985.87
2017-12-14T10:14:44.050Z,985.91
2017-12-14T10:15:44.029Z,985.93
2017-12-14T10:16:44.005Z,985.79
2017-12-14T10:17:43.985Z,985.78
2017-12-14T10:18:43.966Z,985.92
2017-12-14T10:19:43.938Z,985.90
2017-12-14T10:20:43.918Z,985.83
2017-12-14T10:21:43.894Z,985.88
2017-12-14T10:22:43.871Z,985.87
2017-12-14T10:23:43.848Z,985.86
2017-12-14T10:24:43.829Z,985.78
2017-12-14T10:25:43.804Z,985.87
2017-12-14T10:26:43.774Z,985.83
2017-12-14T10:27:43.784Z,985.83
2017-12-14T10:28:43.739Z,985.75
2017-12-14T10:29:43.708Z,985.86
2017-12-14T10:30:43.687Z,985.83
2017-12-14T10:31:43.665Z,985.85
2017-12-14T10:32:43.638Z,985.93
2017-12-14T10:33:43.618Z,985.87
2017-12-14T10:34:43.592Z,985.74
2017-12-14T10:35:43.593Z,985.83
2017-12-14T10:36:43.552Z,985.80
2017-12-14T10:37:43.532Z,985.96
2017-12-14T10:38:43.505Z,985.89
2017-12-14T10:39:43.481Z,985.97
2017-12-14T10:40:43.460Z,985.90
2017-12-14T10:41:43.438Z,985.91
2017-12-14T10:42:43.416Z,985.90
2017-12-14T10:43:43.390Z,985.79
2017-12-14T10:44:43.368Z,985.88
2017-12-14T10:45:43.347Z,985.82
2017-12-14T10:46:43.324Z,985.90
2017-12-14T10:47:43.303Z,985.83
2017-12-14T10:48:43.329Z,985.83
2017-12-14T10:49:43.251Z,985.86
2017-12-14T10:50:43.228Z,985.87
2017-12-14T10:51:43.227Z,985.86
2017-12-14T10:52:43.191Z,985.91
2017-12-14T10:53:43.164Z,985.92
2017-12-14T10:54:43.139Z,985.88
2017-12-14T10:55:43.117Z,985.88
2017-12-14T10:56:43.091Z,985.87
2017-12-14T10:57:43.070Z,985.86
2017-12-14T10:58:43.044Z,985.86
2017-12-14T10:59:43.031Z,985.82
2017-12-14T11:00:43.005Z,985.89
2017-12-14T11:01:42.978Z,985.92
2017-12-14T11:02:42.954Z,985.97
2017-12-14T11:03:42.944Z,985.92
2017-12-14T11:04:42.913Z,985.98
2017-12-14T11:05:42.886Z,985.97
2017-12-14T11:06:42.861Z,986.02
2017-12-14T11:07:42.842Z,986.06
2017-12-14T11:08:42.820Z,986.03
2017-12-14T11:09:42.798Z,986.08
2017-12-14T11:10:42.784Z,986.11
2017-12-14T11:11:42.750Z,986.15
2017-12-14T11:12:42.728Z,986.11
2017-12-14T11:13:42.712Z,986.16
2017-12-14T11:14:42.680Z,986.14
2017-12-14T11:15:42.663Z,986.15
2017-12-14T11:16:42.635Z,986.12
2017-12-14T11:17:42.619Z,986.11
2017-12-14T11:18:42.590Z,986.10
2017-12-14T11:19:42.570Z,986.11
2017-12-14T11:20:42.547Z,986.13
2017-12-14T11:21:42.524Z,986.10
2017-12-14T11:22:42.498Z,986.05
2017-12-14T11:23:42.473Z,986.09
2017-12-14T11:24:42.462Z,986.08
2017-12-14T11:25:42.427Z,986.04
2017-12-14T11:26:42.408Z,986.03
2017-12-14T11:27:42.389Z,986.00
2017-12-14T11:28:42.360Z,986.02
2017-12-14T11:29:42.338Z,986.00
2017-12-14T11:30:42.313Z,986.02
2017-12-14T11:31:42.302Z,986.01
2017-12-14T11:32:42.267Z,985.96
2017-12-14T11:33:42.290Z,986.00
2017-12-14T11:34:42.221Z,986.03
2017-12-14T11:35:42.199Z,985.99
2017-12-14T11:36:42.180Z,986.05
2017-12-14T11:37:42.155Z,986.03
2017-12-14T11:38:42.130Z,985.95
2017-12-14T11:39:42.108Z,986.00
2017-12-14T11:40:42.085Z,985.90
2017-12-14T11:41:42.061Z,985.89
2017-12-14T11:42:42.039Z,985.87
2017-12-14T11:43:42.022Z,985.92
2017-12-14T11:44:42.001Z,985.95
2017-12-14T11:45:41.974Z,985.94
2017-12-14T11:46:41.951Z,985.89
2017-12-14T11:47:41.926Z,985.91
2017-12-14T11:48:41.906Z,985.89
2017-12-14T11:49:41.878Z,985.88
2017-12-14T11:50:41.854Z,985.90
2017-12-14T11:51:41.834Z,985.87
2017-12-14T11:52:41.807Z,985.82
2017-12-14T11:53:41.783Z,985.77
2017-12-14T11:54:41.767Z,985.78
2017-12-14T11:55:41.737Z,985.77
2017-12-14T11:56:41.718Z,985.74
2017-12-14T11:57:41.691Z,985.68
2017-12-14T11:58:41.672Z,985.68
2017-12-14T11:59:41.647Z,985.74
2017-12-14T12:00:41.627Z,985.79
2017-12-14T12:01:41.602Z,985.79
2017-12-14T12:02:41.579Z,985.80
2017-12-14T12:03:41.559Z,985.81
2017-12-14T12:04:41.534Z,985.86
2017-12-14T12:05:41.512Z,985.82
2017-12-14T12:06:41.492Z,985.83
2017-12-14T12:07:41.471Z,985.84
2017-12-14T12:08:41.444Z,985.82
2017-12-14T12:09:41.418Z,985.83
2017-12-14T12:10:41.397Z,985.83
2017-12-14T12:11:41.371Z,985.79
2017-12-14T12:12:41.346Z,985.79
2017-12-14T12:13:41.328Z,985.82
2017-12-14T12:14:41.307Z,985.84
2017-12-14T12:15:41.288Z,985.83
2017-12-14T12:16:41.261Z,985.80
2017-12-14T12:17:41.242Z,985.81
2017-12-14T12:18:41.208Z,985.84
2017-12-14T12:19:41.190Z,985.86
2017-12-14T12:20:41.172Z,985.85
2017-12-14T12:21:41.144Z,985.83
2017-12-14T12:22:41.126Z,985.81
2017-12-14T12:23:41.098Z,985.76
2017-12-14T12:24:41.109Z,985.68
2017-12-14T12:25:41.055Z,985.67
2017-12-14T12:26:41.040Z,985.57
2017-12-14T12:27:41.006Z,985.62
2017-12-14T12:28:40.982Z,985.61